Open Full Screen Window  High Contrast Mode
Wind Gusting 00 knots
04
January 18, 2018 9:40 PM CST
Weather Information
Wind Direction
  180 °
Wind Speed
  04 kt (5 mph)
Wind Gust
  00 kt (0 mph)
Altimeter
29.60 in
Visibility
10 SM
Temperature
-05° C
23° F
Dewpoint
-07° C
19° F
Humidity
86%
1hr Rain Fall
00.00 in.
24hr Rain Fall
00.00 in.
Sky Condition
Clear
VFR

METAR KBJI 190340Z AUTO 18004KT 10SM CLR M05/M07 A2960 RMK AO2 T10491067

*Background is not an actual portrayal of the airport.